AirNav   Duncan Aviation - Near you to keep you 
flying
 
 894 users online  

X10 Belle Glade State Municipal Airport
Belle Glade, Florida, USA

GOING TO BELLE GLADE?


FAA INFORMATION EFFECTIVE 15 JULY 2021

Location

FAA Identifier: X10
Lat/Long: 26-41-53.4800N 080-39-36.8800W
26-41.891333N 080-39.614667W
26.6981889,-80.6602444
(estimated)
Elevation: 14 ft. / 4 m (estimated)
Variation: 03W (1985)
From city: 1 mile NE of BELLE GLADE, FL
Time zone: UTC -4 (UTC -5 during Standard Time)
Zip code: 33430

Airport Operations

Airport use: Open to the public
Activation date: 04/1940
Control tower: no
ARTCC: MIAMI CENTER
FSS: MIAMI FLIGHT SERVICE STATION
NOTAMs facility: MIA (NOTAM-D service available)
Attendance: UNATNDD
Wind indicator: lighted, WIND SOCK TORN OFF
Segmented circle: no
Lights: ACTVT LIRL RWY 09/27 -CTAF.

Airport Communications

CTAF: 122.9

Nearby radio navigation aids

VOR radial/distance  VOR name  Freq  Var
PHKr162/5.3PAHOKEE VOR/DME115.4000E
PBIr275/30.8PALM BEACH VORTAC115.7003W
LBVr100/39.9LA BELLE VORTAC110.4001E

 
NDB name  Hdg/Dist  Freq  Var  ID
UNITED239/21.540505WUTX ..- - -..-

Airport Services

Airframe service: NONE
Powerplant service: NONE
Bottled oxygen: NONE
Bulk oxygen: NONE

Runway Information

Runway 9/27

Dimensions: 3455 x 50 ft. / 1053 x 15 m
Surface: asphalt, in excellent condition
Weight bearing capacity: 
PCN 13 /F/A/X/T
Runway edge lights: low intensity
RUNWAY 9  RUNWAY 27
Latitude: 26-41.891000N26-41.891667N
Longitude: 080-39.932167W080-39.297167W
Elevation: 14.0 ft.11.0 ft.
Traffic pattern: leftleft
Runway heading: 093 magnetic, 090 true273 magnetic, 270 true
Declared distances: TORA:3750 TODA:3750TORA:3750 TODA:3750
Markings: basic, in good conditionbasic, in good condition
Obstructions: 36 ft. tree, 915 ft. from runway, 20 ft. left of centerline, 20:1 slope to clear50 ft. pole, 1342 ft. from runway, 20 ft. left of centerline, 23:1 slope to clear

Airport Ownership and Management from official FAA records

Ownership: Publicly-owned
Owner: CITY OF BELLE GLADE
110 DR. MARTIN LUTHER KING JR. BLVD
BELLE GLADE, FL 33430-3900
Phone 561-996-0100
CONTACT PERSON: LOMAX HARRELLE 561-992-1601
Manager: LARRY TIBBS
110 DR. MARTIN LUTHER KING JR. BLVD
BELLE GLADE, FL 33430
Phone (561) 992-1610

Airport Operational Statistics

Aircraft based on the field: 5
Single engine airplanes: 5
    
Aircraft operations: avg 34/week *
67% local general aviation
33% transient general aviation
* for 12-month period ending 12 January 2018

Additional Remarks

RY 09 NIGHT LNDGS NOT ADVISED DUE TO UNLGTD POWER LINES IN APCH.
BERM FULL LENGTH OF RY 113 FT N OF CNTRLN, RY 09/27.
FOR CD CTC PALM BEACH APCH AT 561-275-1430

Instrument Procedures

There are no published instrument procedures at X10.

Some nearby airports with instrument procedures:

KPHK - Palm Beach County Glades Airport (6 nm N)
2IS - Airglades Airport (21 nm W)
06FA - William P Gwinn Airport (22 nm NE)
F45 - North Palm Beach County General Aviation Airport (25 nm E)
KPBI - Palm Beach International Airport (30 nm E)
 
Loc | Ops | Rwys | IFR | FBO | Links
Com | Nav | Svcs | Stats | Notes


 
Area around X10 (Belle Glade State Municipal Airport)
 
Road maps at: MapQuest Bing Google
 
Aerial photo
WARNING: Photo may not be current or correct
Aerial photo of X10 (Belle Glade State Municipal Airport)
Do you have a better or more recent aerial photo of Belle Glade State Municipal Airport that you would like to share? If so, please send us your photo.

 
Sectional chart

 
Airport distance calculator
Flying to Belle Glade State Municipal Airport? Find the distance to fly.

From to X10

Sunrise and sunset
Times for 01-Aug-2021
 Local
(UTC-4)
 Zulu
(UTC)
Morning civil twilight06:2310:23
Sunrise06:4810:48
Sunset20:0900:09
Evening civil twilight20:3400:34

Current date and time
Zulu (UTC)  02-Aug-2021 03:06:38
Local (UTC-4)  01-Aug-2021 23:06:38
 
METAR
K2IS 
21nm W 
020255Z AUTO BKN050 25/23 A3010 RMK AO2 PWINO T02510235
KPBI 
30nm E 
020253Z 22005KT 10SM SCT250 28/23 A3009 RMK AO2 SLP190 T02780233 53017
KOBE 
35nm N 
020255Z 10SM SCT039 SCT047 SCT055 A3008 RMK AO2 LTG DSNT N AND NE
KBCT 
36nm SE 
020253Z 25005KT 10SM CLR 28/24 A3009
KSUA 
38nm NE 
020255Z AUTO 21005KT 10SM CLR 28/22 A3009 RMK AO2 LTG DSNT N
KFXE 
39nm SE 
020253Z AUTO 00000KT 10SM CLR 28/24 A3009 RMK AO2 SLP191 T02780244 53019 TSNO
KPMP 
40nm SE 
020253Z AUTO 00000KT 10SM CLR 28/23 A3009 RMK AO2 SLP190 60000 T02780233 53020
TAF
KPBI 
30nm E 
012106Z 0121/0218 15010KT P6SM VCTS SCT025CB BKN050 FM012300 16009KT P6SM FEW035 SCT100 FM020100 VRB04KT P6SM FEW025 SCT250 FM021600 15009KT P6SM VCTS SCT030CB BKN080 PROB30 0216/0218 6SM TS SCT030CB BKN050
KSUA 
38nm NE 
011740Z 0118/0218 13010KT P6SM VCSH SCT035 SCT250 FM020100 19007KT P6SM FEW020 SCT080 AMD NOT SKED
NOTAMs
Click for the latest NOTAMs
NOTAMs are issued by the DoD/FAA and will open in a separate window not controlled by AirNav.

 

 
 

Would you like to see your business listed on this page?

 If your business provides an interesting product or service to pilots, flight crews, aircraft, or users of the Belle Glade State Municipal Airport, you should consider listing it here.  To start the listing process, click on the button below
 
Add a business
 

Other Pages about Belle Glade State Municipal Airport

Update a link
 
Copyright © AirNav, LLC. All rights reserved. Privacy Policy  Contact